createdAt,value
2023-05-24T00:00:31.028Z,94071.94
2023-05-24T00:02:58.200Z,94064.88
2023-05-24T00:05:25.091Z,94058.59
2023-05-24T00:07:51.869Z,94064.06
2023-05-24T00:10:18.761Z,94074.53
2023-05-24T00:12:45.924Z,94071.06
2023-05-24T00:15:12.874Z,94073.91
2023-05-24T00:17:43.110Z,94072.34
2023-05-24T00:20:12.253Z,94077.06
2023-05-24T00:22:39.283Z,94071.78
2023-05-24T00:25:07.049Z,94075.44
2023-05-24T00:27:33.871Z,94075.94
2023-05-24T00:30:00.863Z,94066.78
2023-05-24T00:32:27.606Z,94070.13
2023-05-24T00:34:54.405Z,94070.91
2023-05-24T00:37:21.209Z,94071.75
2023-05-24T00:39:47.989Z,94066.25
2023-05-24T00:42:14.752Z,94066.56
2023-05-24T00:44:41.580Z,94061.81
2023-05-24T00:47:08.637Z,94069.66
2023-05-24T00:49:35.481Z,94067.56
2023-05-24T00:52:02.270Z,94065.19
2023-05-24T00:54:29.825Z,94069.16
2023-05-24T00:56:57.022Z,94061.31
2023-05-24T00:59:24.308Z,94060.03
2023-05-24T01:01:51.184Z,94060.03
2023-05-24T01:04:20.586Z,94055.53
2023-05-24T01:06:59.598Z,94055.31
2023-05-24T01:09:35.336Z,94045.63
2023-05-24T01:12:25.192Z,94036.19
2023-05-24T01:15:15.182Z,94036.66
2023-05-24T01:18:01.743Z,94032.72
2023-05-24T01:20:34.110Z,94026.69
2023-05-24T01:23:08.055Z,94024.38
2023-05-24T01:25:43.617Z,94023.34
2023-05-24T01:28:14.829Z,94020.47
2023-05-24T01:30:42.478Z,94026.78
2023-05-24T01:33:09.612Z,94020.47
2023-05-24T01:35:40.504Z,94030.41
2023-05-24T01:38:07.795Z,94027.28
2023-05-24T01:40:35.108Z,94026.69
2023-05-24T01:43:11.205Z,94025.06
2023-05-24T01:45:49.212Z,94033.38
2023-05-24T01:48:34.691Z,94034.06
2023-05-24T01:51:07.630Z,94035.28
2023-05-24T01:53:35.632Z,94032.22
2023-05-24T01:56:05.198Z,94038.50
2023-05-24T01:58:32.399Z,94037.94
2023-05-24T02:00:59.923Z,94042.03
2023-05-24T02:03:26.718Z,94043.97
2023-05-24T02:05:53.557Z,94039.91
2023-05-24T02:08:21.307Z,94036.28
2023-05-24T02:10:48.081Z,94048.78
2023-05-24T02:13:16.533Z,94033.16
2023-05-24T02:15:43.405Z,94039.44
2023-05-24T02:18:11.457Z,94032.66
2023-05-24T02:20:38.302Z,94033.75
2023-05-24T02:23:05.133Z,94028.53
2023-05-24T02:25:32.824Z,94030.59
2023-05-24T02:27:59.838Z,94021.66
2023-05-24T02:30:26.852Z,94029.75
2023-05-24T02:32:53.785Z,94036.28
2023-05-24T02:35:20.909Z,94034.06
2023-05-24T02:37:47.671Z,94032.50
2023-05-24T02:40:14.536Z,94029.94
2023-05-24T02:42:41.431Z,94021.00
2023-05-24T02:45:08.639Z,94014.44
2023-05-24T02:47:35.561Z,94019.34
2023-05-24T02:50:02.491Z,94032.44
2023-05-24T02:52:29.244Z,94034.53
2023-05-24T02:54:56.411Z,94035.56
2023-05-24T02:57:23.210Z,94028.19
2023-05-24T02:59:50.005Z,94028.78
2023-05-24T03:02:18.148Z,94027.72
2023-05-24T03:04:44.926Z,94026.72
2023-05-24T03:07:11.661Z,94025.19
2023-05-24T03:09:38.637Z,94033.03
2023-05-24T03:12:06.399Z,94030.97
2023-05-24T03:14:33.205Z,94025.94
2023-05-24T03:16:59.950Z,94030.44
2023-05-24T03:19:26.777Z,94023.94
2023-05-24T03:21:53.619Z,94031.78
2023-05-24T03:24:20.861Z,94030.44
2023-05-24T03:26:47.762Z,94035.41
2023-05-24T03:29:14.519Z,94037.00
2023-05-24T03:31:41.409Z,94039.78
2023-05-24T03:34:08.128Z,94040.22
2023-05-24T03:36:34.943Z,94044.91
2023-05-24T03:39:03.970Z,94049.44
2023-05-24T03:41:31.275Z,94048.41
2023-05-24T03:43:58.168Z,94040.09
2023-05-24T03:46:25.034Z,94045.31
2023-05-24T03:48:51.839Z,94042.41
2023-05-24T03:51:18.684Z,94042.09
2023-05-24T03:53:45.690Z,94029.16
2023-05-24T03:56:12.744Z,94031.06
2023-05-24T03:58:39.539Z,94032.16
2023-05-24T04:01:06.916Z,94042.47
2023-05-24T04:03:34.389Z,94042.53
2023-05-24T04:06:02.012Z,94046.97
2023-05-24T04:08:28.858Z,94045.69
2023-05-24T04:10:55.825Z,94049.63
2023-05-24T04:13:22.746Z,94043.81
2023-05-24T04:15:49.567Z,94042.84
2023-05-24T04:18:16.484Z,94047.56
2023-05-24T04:20:43.409Z,94051.50
2023-05-24T04:23:10.516Z,94053.88
2023-05-24T04:25:37.300Z,94053.09
2023-05-24T04:28:04.159Z,94053.81
2023-05-24T04:30:31.158Z,94058.69
2023-05-24T04:32:58.511Z,94058.09
2023-05-24T04:35:28.475Z,94057.53
2023-05-24T04:37:55.230Z,94048.25
2023-05-24T04:40:23.005Z,94050.31
2023-05-24T04:42:50.733Z,94060.16
2023-05-24T04:45:17.646Z,94052.91
2023-05-24T04:47:44.579Z,94059.50
2023-05-24T04:50:11.443Z,94057.59
2023-05-24T04:52:38.376Z,94062.50
2023-05-24T04:55:05.632Z,94064.81
2023-05-24T04:57:32.447Z,94065.34
2023-05-24T04:59:59.277Z,94062.16
2023-05-24T05:02:27.325Z,94058.75
2023-05-24T05:04:54.243Z,94062.09
2023-05-24T05:07:21.151Z,94053.00
2023-05-24T05:09:48.190Z,94063.13
2023-05-24T05:12:15.549Z,94055.34
2023-05-24T05:14:42.640Z,94059.06
2023-05-24T05:17:09.573Z,94061.94
2023-05-24T05:19:36.508Z,94059.34
2023-05-24T05:22:03.441Z,94051.03
2023-05-24T05:24:30.394Z,94059.66
2023-05-24T05:26:57.319Z,94060.66
2023-05-24T05:29:24.615Z,94065.91
2023-05-24T05:31:51.690Z,94060.16
2023-05-24T05:34:19.702Z,94060.91
2023-05-24T05:36:46.832Z,94066.66
2023-05-24T05:39:14.216Z,94066.66
2023-05-24T05:41:45.886Z,94057.34
2023-05-24T05:44:13.341Z,94057.03
2023-05-24T05:46:40.526Z,94066.47
2023-05-24T05:49:07.460Z,94050.00
2023-05-24T05:51:34.308Z,94054.91
2023-05-24T05:54:01.283Z,94055.16
2023-05-24T05:56:28.109Z,94060.09
2023-05-24T05:58:55.084Z,94042.88
2023-05-24T06:01:21.878Z,94056.31
2023-05-24T06:03:49.231Z,94059.34
2023-05-24T06:06:16.240Z,94052.59
2023-05-24T06:08:43.096Z,94059.50
2023-05-24T06:11:09.935Z,94068.66
2023-05-24T06:13:36.758Z,94059.59
2023-05-24T06:16:03.542Z,94070.03
2023-05-24T06:18:32.613Z,94075.00
2023-05-24T06:20:59.470Z,94075.28
2023-05-24T06:23:26.659Z,94065.25
2023-05-24T06:25:53.549Z,94061.44
2023-05-24T06:28:20.611Z,94066.38
2023-05-24T06:30:47.877Z,94078.69
2023-05-24T06:33:14.809Z,94074.38
2023-05-24T06:35:41.642Z,94072.78
2023-05-24T06:38:08.559Z,94071.69
2023-05-24T06:40:35.394Z,94074.38
2023-05-24T06:43:02.347Z,94074.94
2023-05-24T06:45:29.354Z,94070.25
2023-05-24T06:47:56.299Z,94080.09
2023-05-24T06:50:23.956Z,94088.00
2023-05-24T06:52:50.883Z,94090.34
2023-05-24T06:55:17.740Z,94090.25
2023-05-24T06:57:44.581Z,94101.19
2023-05-24T07:00:12.822Z,94098.06
2023-05-24T07:02:40.040Z,94099.59
2023-05-24T07:05:12.401Z,94103.78
2023-05-24T07:07:40.523Z,94079.31
2023-05-24T07:10:08.417Z,94106.88
2023-05-24T07:12:35.285Z,94108.06
2023-05-24T07:15:02.237Z,94114.41
2023-05-24T07:17:29.067Z,94112.88
2023-05-24T07:19:55.960Z,94109.56
2023-05-24T07:22:24.537Z,94111.03
2023-05-24T07:24:51.598Z,94108.34
2023-05-24T07:27:18.437Z,94119.00
2023-05-24T07:29:46.966Z,94130.72
2023-05-24T07:32:15.057Z,94128.97
2023-05-24T07:34:42.028Z,94124.16
2023-05-24T07:37:08.812Z,94128.16
2023-05-24T07:39:35.599Z,94125.63
2023-05-24T07:42:02.414Z,94122.47
2023-05-24T07:44:29.598Z,94134.03
2023-05-24T07:46:57.256Z,94129.03
2023-05-24T07:49:24.350Z,94131.72
2023-05-24T07:51:51.142Z,94134.06
2023-05-24T07:54:17.941Z,94134.69
2023-05-24T07:56:45.044Z,94135.47
2023-05-24T07:59:12.233Z,94142.03
2023-05-24T08:01:39.083Z,94143.25
2023-05-24T08:04:06.054Z,94139.81
2023-05-24T08:06:33.165Z,94149.75
2023-05-24T08:09:00.377Z,94141.88
2023-05-24T08:11:27.602Z,94149.25
2023-05-24T08:13:54.372Z,94140.59
2023-05-24T08:16:21.284Z,94147.22
2023-05-24T08:18:48.113Z,94138.81
2023-05-24T08:21:14.925Z,94145.31
2023-05-24T08:23:41.774Z,94150.34
2023-05-24T08:26:09.119Z,94158.88
2023-05-24T08:28:36.133Z,94150.03
2023-05-24T08:31:02.993Z,94155.28
2023-05-24T08:33:30.303Z,94144.84
2023-05-24T08:35:57.135Z,94157.53
2023-05-24T08:38:23.894Z,94158.88
2023-05-24T08:40:50.840Z,94157.88
2023-05-24T08:43:17.817Z,94153.09
2023-05-24T08:45:45.910Z,94156.91
2023-05-24T08:48:14.120Z,94159.03
2023-05-24T08:50:42.436Z,94164.69
2023-05-24T08:53:10.280Z,94161.91
2023-05-24T08:55:37.593Z,94156.69
2023-05-24T08:58:04.623Z,94165.69
2023-05-24T09:00:31.860Z,94153.06
2023-05-24T09:02:59.278Z,94162.81
2023-05-24T09:05:26.583Z,94162.81
2023-05-24T09:07:54.753Z,94169.06
2023-05-24T09:10:22.877Z,94170.84
2023-05-24T09:12:54.747Z,94169.63
2023-05-24T09:15:21.742Z,94163.50
2023-05-24T09:17:48.561Z,94169.25
2023-05-24T09:20:15.680Z,94163.06
2023-05-24T09:22:44.159Z,94162.91
2023-05-24T09:25:14.118Z,94161.00
2023-05-24T09:27:41.655Z,94147.47
2023-05-24T09:30:12.911Z,94152.75
2023-05-24T09:32:39.972Z,94158.00
2023-05-24T09:35:11.381Z,94154.81
2023-05-24T09:37:40.935Z,94160.19
2023-05-24T09:40:23.673Z,94162.03
2023-05-24T09:43:02.974Z,94152.88
2023-05-24T09:45:29.785Z,94162.03
2023-05-24T09:47:56.886Z,94159.69
2023-05-24T09:50:23.756Z,94161.56
2023-05-24T09:52:51.572Z,94169.25
2023-05-24T09:55:20.445Z,94172.59
2023-05-24T09:58:13.983Z,94175.78
2023-05-24T10:00:42.286Z,94166.38
2023-05-24T10:03:12.007Z,94171.91
2023-05-24T10:05:41.949Z,94164.56
2023-05-24T10:08:12.083Z,94160.09
2023-05-24T10:10:38.978Z,94167.22
2023-05-24T10:13:05.941Z,94161.66
2023-05-24T10:15:32.791Z,94164.38
2023-05-24T10:18:10.387Z,94156.09
2023-05-24T10:20:41.866Z,94166.88
2023-05-24T10:23:10.496Z,94171.84
2023-05-24T10:25:41.305Z,94156.41
2023-05-24T10:28:12.617Z,94152.44
2023-05-24T10:30:57.749Z,94170.31
2023-05-24T10:33:25.264Z,94165.56
2023-05-24T10:35:53.168Z,94173.16
2023-05-24T10:38:24.913Z,94173.34
2023-05-24T10:40:52.306Z,94180.38
2023-05-24T10:43:19.392Z,94177.41
2023-05-24T10:45:50.026Z,94187.00
2023-05-24T10:48:17.287Z,94177.00
2023-05-24T10:50:44.982Z,94178.03
2023-05-24T10:53:16.378Z,94165.75
2023-05-24T10:56:00.109Z,94174.16
2023-05-24T10:58:33.149Z,94177.34
2023-05-24T11:01:00.261Z,94168.13
2023-05-24T11:03:33.320Z,94168.69
2023-05-24T11:06:00.422Z,94166.03
2023-05-24T11:08:36.034Z,94166.06
2023-05-24T11:13:44.199Z,94163.19
2023-05-24T11:16:38.173Z,94163.34
2023-05-24T11:19:18.390Z,94159.16
2023-05-24T11:21:47.043Z,94156.53
2023-05-24T11:24:14.200Z,94158.88
2023-05-24T11:26:41.352Z,94165.44
2023-05-24T11:29:08.300Z,94157.50
2023-05-24T11:31:42.400Z,94159.31
2023-05-24T11:34:10.988Z,94151.19
2023-05-24T11:36:37.951Z,94158.81
2023-05-24T11:39:09.478Z,94149.06
2023-05-24T11:41:39.558Z,94156.16
2023-05-24T11:44:07.950Z,94153.00
2023-05-24T11:46:35.193Z,94149.81
2023-05-24T11:49:02.402Z,94152.22
2023-05-24T11:51:33.977Z,94159.13
2023-05-24T11:54:01.159Z,94162.38
2023-05-24T11:56:33.031Z,94159.06
2023-05-24T11:59:11.641Z,94165.00
2023-05-24T12:01:38.560Z,94156.44
2023-05-24T12:04:09.900Z,94162.19
2023-05-24T12:06:42.268Z,94148.50
2023-05-24T12:09:17.660Z,94153.00
2023-05-24T12:11:48.212Z,94152.47
2023-05-24T12:14:17.254Z,94155.41
2023-05-24T12:16:45.790Z,94157.31
2023-05-24T12:19:31.572Z,94169.28
2023-05-24T12:22:01.132Z,94164.03
2023-05-24T12:24:28.645Z,94167.38
2023-05-24T12:27:02.268Z,94167.13
2023-05-24T12:29:40.966Z,94177.13
2023-05-24T12:32:13.623Z,94182.50
2023-05-24T12:34:43.029Z,94184.81
2023-05-24T12:37:11.225Z,94190.94
2023-05-24T12:39:39.757Z,94183.97
2023-05-24T12:42:06.859Z,94175.47
2023-05-24T12:44:40.545Z,94183.59
2023-05-24T12:47:08.417Z,94175.28
2023-05-24T12:49:35.833Z,94181.59
2023-05-24T12:52:02.622Z,94174.50
2023-05-24T12:54:29.981Z,94179.53
2023-05-24T12:56:57.722Z,94181.41
2023-05-24T12:59:26.082Z,94181.19
2023-05-24T13:01:53.293Z,94174.06
2023-05-24T13:04:24.462Z,94175.13
2023-05-24T13:06:51.490Z,94166.44
2023-05-24T13:09:19.466Z,94171.22
2023-05-24T13:11:46.969Z,94173.50
2023-05-24T13:14:15.639Z,94149.38
2023-05-24T13:16:42.811Z,94170.13
2023-05-24T13:19:10.511Z,94175.03
2023-05-24T13:21:38.210Z,94170.94
2023-05-24T13:24:06.906Z,94169.91
2023-05-24T13:26:37.725Z,94168.25
2023-05-24T13:31:37.961Z,94166.63
2023-05-24T13:34:05.474Z,94167.91
2023-05-24T13:36:32.517Z,94175.38
2023-05-24T13:41:30.638Z,94171.13
2023-05-24T13:43:57.795Z,94164.25
2023-05-24T13:46:24.770Z,94164.59
2023-05-24T13:48:51.683Z,94161.00
2023-05-24T13:51:19.809Z,94160.69
2023-05-24T13:53:47.938Z,94164.59
2023-05-24T13:56:15.917Z,94168.44
2023-05-24T13:58:43.396Z,94160.38
2023-05-24T14:01:10.753Z,94165.63
2023-05-24T14:03:39.796Z,94166.53
2023-05-24T14:06:08.180Z,94173.00
2023-05-24T14:08:35.291Z,94164.78
2023-05-24T14:11:02.104Z,94174.56
2023-05-24T14:15:58.555Z,94165.69
2023-05-24T14:18:25.390Z,94172.69
2023-05-24T14:20:52.356Z,94169.69
2023-05-24T14:23:19.163Z,94165.34
2023-05-24T14:25:47.033Z,94168.66
2023-05-24T14:28:13.897Z,94171.47
2023-05-24T14:30:42.187Z,94164.09
2023-05-24T14:33:11.623Z,94158.28
2023-05-24T14:35:40.158Z,94162.06
2023-05-24T14:38:07.895Z,94167.50
2023-05-24T14:40:37.089Z,94159.94
2023-05-24T14:43:04.784Z,94160.16
2023-05-24T14:45:31.682Z,94158.13
2023-05-24T14:47:58.540Z,94162.81
2023-05-24T14:50:25.299Z,94151.28
2023-05-24T14:52:54.319Z,94162.22
2023-05-24T14:55:22.161Z,94162.56
2023-05-24T14:57:49.639Z,94175.00
2023-05-24T15:00:18.568Z,94163.38
2023-05-24T15:02:46.986Z,94154.59
2023-05-24T15:05:13.794Z,94152.59
2023-05-24T15:07:40.642Z,94147.69
2023-05-24T15:10:08.304Z,94152.19
2023-05-24T15:12:35.130Z,94150.31
2023-05-24T15:15:02.216Z,94140.47
2023-05-24T15:17:29.083Z,94148.53
2023-05-24T15:19:58.256Z,94143.81
2023-05-24T15:22:25.201Z,94145.56
2023-05-24T15:24:52.025Z,94146.06
2023-05-24T15:27:18.758Z,94150.00
2023-05-24T15:29:45.617Z,94141.91
2023-05-24T15:32:12.326Z,94151.00
2023-05-24T15:34:39.089Z,94142.25
2023-05-24T15:37:05.925Z,94142.88
2023-05-24T15:39:33.727Z,94140.50
2023-05-24T15:42:01.015Z,94147.47
2023-05-24T15:44:28.091Z,94146.44
2023-05-24T15:46:54.901Z,94152.88
2023-05-24T15:49:23.214Z,94159.94
2023-05-24T15:52:03.865Z,94149.81
2023-05-24T15:54:31.852Z,94154.16
2023-05-24T15:57:00.617Z,94154.47
2023-05-24T15:59:28.212Z,94154.28
2023-05-24T16:01:55.333Z,94160.03
2023-05-24T16:04:22.315Z,94167.16
2023-05-24T16:06:49.448Z,94162.06
2023-05-24T16:09:16.330Z,94169.34
2023-05-24T16:11:43.099Z,94177.94
2023-05-24T16:14:10.523Z,94178.84
2023-05-24T16:16:38.121Z,94170.88
2023-05-24T16:19:04.981Z,94176.75
2023-05-24T16:21:33.105Z,94174.56
2023-05-24T16:24:01.832Z,94165.69
2023-05-24T16:26:30.890Z,94165.88
2023-05-24T16:28:58.293Z,94170.19
2023-05-24T16:31:25.811Z,94167.72
2023-05-24T16:33:52.708Z,94171.41
2023-05-24T16:36:19.532Z,94173.47
2023-05-24T16:38:46.399Z,94170.25
2023-05-24T16:41:13.298Z,94164.53
2023-05-24T16:43:40.196Z,94168.38
2023-05-24T16:46:06.983Z,94167.28
2023-05-24T16:48:33.842Z,94178.81
2023-05-24T16:51:01.212Z,94172.81
2023-05-24T16:53:28.266Z,94179.13
2023-05-24T16:55:56.303Z,94178.25
2023-05-24T16:58:25.009Z,94181.50
2023-05-24T17:00:54.415Z,94177.03
2023-05-24T17:03:30.259Z,94178.38
2023-05-24T17:06:01.966Z,94180.72
2023-05-24T17:08:30.035Z,94176.16
2023-05-24T17:10:57.221Z,94187.34
2023-05-24T17:13:24.285Z,94185.19
2023-05-24T17:15:52.374Z,94186.16
2023-05-24T17:18:21.412Z,94184.75
2023-05-24T17:20:48.502Z,94193.22
2023-05-24T17:23:15.248Z,94192.97
2023-05-24T17:25:42.219Z,94201.06
2023-05-24T17:28:09.019Z,94204.97
2023-05-24T17:30:36.540Z,94199.66
2023-05-24T17:33:03.387Z,94193.31
2023-05-24T17:35:30.285Z,94195.69
2023-05-24T17:37:57.471Z,94180.50
2023-05-24T17:40:24.347Z,94193.31
2023-05-24T17:42:51.168Z,94201.13
2023-05-24T17:45:17.921Z,94191.53
2023-05-24T17:47:44.874Z,94206.22
2023-05-24T17:50:11.729Z,94206.44
2023-05-24T17:52:38.488Z,94212.94
2023-05-24T17:55:06.278Z,94214.69
2023-05-24T17:57:33.073Z,94223.75
2023-05-24T17:59:59.869Z,94222.97
2023-05-24T18:02:26.746Z,94219.06
2023-05-24T18:04:55.393Z,94219.06
2023-05-24T18:07:22.641Z,94220.84
2023-05-24T18:09:49.509Z,94219.50
2023-05-24T18:12:16.334Z,94222.41
2023-05-24T18:14:44.380Z,94232.09
2023-05-24T18:17:11.459Z,94227.09
2023-05-24T18:19:38.220Z,94225.50
2023-05-24T18:22:05.057Z,94225.03
2023-05-24T18:24:32.049Z,94225.50
2023-05-24T18:26:59.077Z,94224.41
2023-05-24T18:29:25.921Z,94230.91
2023-05-24T18:31:52.731Z,94223.38
2023-05-24T18:34:19.783Z,94236.91
2023-05-24T18:36:47.224Z,94235.88
2023-05-24T18:39:14.064Z,94247.06
2023-05-24T18:41:40.875Z,94240.25
2023-05-24T18:44:07.767Z,94250.69
2023-05-24T18:46:34.572Z,94244.44
2023-05-24T18:49:03.153Z,94249.91
2023-05-24T18:51:29.973Z,94253.31
2023-05-24T18:53:57.017Z,94252.75
2023-05-24T18:56:24.375Z,94254.66
2023-05-24T18:58:51.888Z,94258.63
2023-05-24T19:01:19.281Z,94253.88
2023-05-24T19:03:46.237Z,94254.66
2023-05-24T19:06:14.751Z,94267.50
2023-05-24T19:08:41.826Z,94263.06
2023-05-24T19:11:11.174Z,94273.03
2023-05-24T19:13:39.975Z,94271.78
2023-05-24T19:16:06.870Z,94274.41
2023-05-24T19:18:33.685Z,94284.75
2023-05-24T19:21:00.946Z,94280.25
2023-05-24T19:23:27.645Z,94286.81
2023-05-24T19:25:54.453Z,94289.34
2023-05-24T19:28:21.629Z,94290.88
2023-05-24T19:30:48.366Z,94288.72
2023-05-24T19:33:15.268Z,94301.31
2023-05-24T19:35:42.249Z,94304.53
2023-05-24T19:38:09.792Z,94311.47
2023-05-24T19:40:36.912Z,94312.59
2023-05-24T19:43:03.692Z,94317.03
2023-05-24T19:45:30.724Z,94315.00
2023-05-24T19:47:57.489Z,94317.81
2023-05-24T19:50:24.400Z,94320.03
2023-05-24T19:52:51.284Z,94322.44
2023-05-24T19:55:18.445Z,94323.44
2023-05-24T19:57:45.229Z,94325.50
2023-05-24T20:00:13.964Z,94323.97
2023-05-24T20:02:41.051Z,94317.97
2023-05-24T20:05:09.052Z,94331.81
2023-05-24T20:07:35.922Z,94322.97
2023-05-24T20:10:05.194Z,94320.84
2023-05-24T20:12:33.910Z,94322.88
2023-05-24T20:15:01.067Z,94325.50
2023-05-24T20:17:27.899Z,94333.34
2023-05-24T20:19:54.669Z,94324.84
2023-05-24T20:22:21.466Z,94330.06
2023-05-24T20:24:48.290Z,94339.03
2023-05-24T20:27:15.130Z,94338.56
2023-05-24T20:29:43.085Z,94340.63
2023-05-24T20:32:10.021Z,94338.47
2023-05-24T20:34:36.812Z,94334.09
2023-05-24T20:37:03.686Z,94341.38
2023-05-24T20:39:31.740Z,94345.56
2023-05-24T20:41:58.995Z,94350.41
2023-05-24T20:44:26.057Z,94350.41
2023-05-24T20:46:52.787Z,94351.25
2023-05-24T20:49:19.537Z,94347.03
2023-05-24T20:51:46.305Z,94341.81
2023-05-24T20:54:14.083Z,94347.59
2023-05-24T20:56:41.166Z,94342.16
2023-05-24T20:59:07.880Z,94337.22
2023-05-24T21:01:34.587Z,94334.09
2023-05-24T21:04:01.450Z,94334.09
2023-05-24T21:06:28.209Z,94323.31
2023-05-24T21:08:56.782Z,94326.16
2023-05-24T21:11:23.647Z,94331.94
2023-05-24T21:13:51.342Z,94330.72
2023-05-24T21:16:18.225Z,94331.97
2023-05-24T21:18:45.061Z,94329.13
2023-05-24T21:21:11.738Z,94330.16
2023-05-24T21:23:38.464Z,94327.69
2023-05-24T21:26:05.509Z,94322.25
2023-05-24T21:28:32.374Z,94333.47
2023-05-24T21:30:59.059Z,94332.13
2023-05-24T21:33:26.034Z,94338.91
2023-05-24T21:35:52.782Z,94328.84
2023-05-24T21:38:19.525Z,94333.78
2023-05-24T21:40:46.381Z,94332.44
2023-05-24T21:43:13.222Z,94329.59
2023-05-24T21:45:39.923Z,94337.53
2023-05-24T21:48:07.533Z,94332.75
2023-05-24T21:50:35.031Z,94337.97
2023-05-24T21:53:02.270Z,94338.44
2023-05-24T21:55:29.696Z,94348.91
2023-05-24T21:57:56.753Z,94350.84
2023-05-24T22:00:23.685Z,94354.81
2023-05-24T22:02:50.746Z,94345.97
2023-05-24T22:05:18.316Z,94351.53
2023-05-24T22:07:45.475Z,94357.53
2023-05-24T22:10:12.866Z,94353.00
2023-05-24T22:12:39.684Z,94358.00
2023-05-24T22:15:06.882Z,94347.72
2023-05-24T22:17:36.994Z,94358.00
2023-05-24T22:20:06.299Z,94357.53
2023-05-24T22:22:33.175Z,94353.13
2023-05-24T22:25:01.979Z,94350.72
2023-05-24T22:27:29.572Z,94359.03
2023-05-24T22:29:56.307Z,94354.25
2023-05-24T22:32:23.118Z,94353.22
2023-05-24T22:34:50.100Z,94363.22
2023-05-24T22:37:16.949Z,94350.63
2023-05-24T22:39:45.152Z,94359.25
2023-05-24T22:42:11.919Z,94362.19
2023-05-24T22:44:38.758Z,94361.63
2023-05-24T22:47:05.490Z,94360.38
2023-05-24T22:49:34.248Z,94364.00
2023-05-24T22:52:01.216Z,94361.97
2023-05-24T22:54:27.933Z,94376.19
2023-05-24T22:56:54.713Z,94363.56
2023-05-24T22:59:21.410Z,94366.78
2023-05-24T23:01:48.254Z,94355.72
2023-05-24T23:06:46.089Z,94345.97
2023-05-24T23:09:13.254Z,94349.03
2023-05-24T23:11:40.110Z,94343.59
2023-05-24T23:14:09.043Z,94351.88
2023-05-24T23:16:45.670Z,94361.53
2023-05-24T23:19:18.744Z,94357.78
2023-05-24T23:21:45.946Z,94357.47
2023-05-24T23:24:14.835Z,94348.63
2023-05-24T23:26:42.315Z,94346.22
2023-05-24T23:29:09.252Z,94347.00
2023-05-24T23:31:36.298Z,94335.53
2023-05-24T23:34:04.375Z,94345.19
2023-05-24T23:36:31.387Z,94343.16
2023-05-24T23:38:58.306Z,94352.00
2023-05-24T23:41:25.133Z,94352.78
2023-05-24T23:43:52.586Z,94344.50
2023-05-24T23:46:19.471Z,94350.97
2023-05-24T23:48:46.438Z,94347.16
2023-05-24T23:51:13.293Z,94347.81
2023-05-24T23:53:40.176Z,94357.91
2023-05-24T23:56:06.909Z,94351.78
2023-05-24T23:58:34.141Z,94348.63
